sensor_id;sensor_type;location;lat;lon;timestamp;pressure;altitude;pressure_sealevel;temperature;humidity
21234;BME280;10774;42.178;26.578;2022-10-16T00:00:21;100697.22;;;10.94;94.94
21234;BME280;10774;42.178;26.578;2022-10-16T00:02:46;100695.44;;;10.77;95.45
21234;BME280;10774;42.178;26.578;2022-10-16T00:05:12;100711.59;;;10.76;95.90
21234;BME280;10774;42.178;26.578;2022-10-16T00:07:37;100703.34;;;10.63;96.04
21234;BME280;10774;42.178;26.578;2022-10-16T00:10:02;100701.34;;;10.49;96.86
21234;BME280;10774;42.178;26.578;2022-10-16T00:12:28;100707.38;;;10.71;95.60
21234;BME280;10774;42.178;26.578;2022-10-16T00:14:53;100711.56;;;10.77;95.21
21234;BME280;10774;42.178;26.578;2022-10-16T00:17:19;100708.78;;;10.79;94.67
21234;BME280;10774;42.178;26.578;2022-10-16T00:19:44;100722.84;;;10.84;94.02
21234;BME280;10774;42.178;26.578;2022-10-16T00:22:09;100717.06;;;10.74;94.24
21234;BME280;10774;42.178;26.578;2022-10-16T00:24:36;100717.59;;;10.81;93.31
21234;BME280;10774;42.178;26.578;2022-10-16T00:27:01;100716.38;;;10.70;93.42
21234;BME280;10774;42.178;26.578;2022-10-16T00:29:27;100727.75;;;10.58;94.37
21234;BME280;10774;42.178;26.578;2022-10-16T00:31:52;100718.50;;;10.29;96.42
21234;BME280;10774;42.178;26.578;2022-10-16T00:34:18;100726.25;;;10.35;96.86
21234;BME280;10774;42.178;26.578;2022-10-16T00:36:43;100724.38;;;10.18;97.41
21234;BME280;10774;42.178;26.578;2022-10-16T00:39:08;100705.09;;;10.29;97.35
21234;BME280;10774;42.178;26.578;2022-10-16T00:41:34;100706.59;;;10.35;98.18
21234;BME280;10774;42.178;26.578;2022-10-16T00:44:03;100701.91;;;10.38;97.78
21234;BME280;10774;42.178;26.578;2022-10-16T00:46:42;100707.84;;;10.62;97.37
21234;BME280;10774;42.178;26.578;2022-10-16T00:49:13;100719.84;;;10.72;97.00
21234;BME280;10774;42.178;26.578;2022-10-16T00:51:42;100722.97;;;10.81;96.89
21234;BME280;10774;42.178;26.578;2022-10-16T00:54:14;100720.00;;;10.87;96.06
21234;BME280;10774;42.178;26.578;2022-10-16T00:56:41;100719.03;;;10.88;96.62
21234;BME280;10774;42.178;26.578;2022-10-16T00:59:33;100714.34;;;10.91;96.72
21234;BME280;10774;42.178;26.578;2022-10-16T01:01:57;100726.41;;;11.17;95.34
21234;BME280;10774;42.178;26.578;2022-10-16T01:04:24;100720.91;;;11.03;95.04
21234;BME280;10774;42.178;26.578;2022-10-16T01:12:59;100727.56;;;10.27;99.81
21234;BME280;10774;42.178;26.578;2022-10-16T01:15:41;100729.88;;;10.34;100.00
21234;BME280;10774;42.178;26.578;2022-10-16T01:20:50;100742.97;;;10.58;99.63
21234;BME280;10774;42.178;26.578;2022-10-16T01:26:03;100739.81;;;10.84;97.80
21234;BME280;10774;42.178;26.578;2022-10-16T01:28:45;100743.59;;;10.97;97.04
21234;BME280;10774;42.178;26.578;2022-10-16T01:31:15;100743.66;;;10.96;96.42
21234;BME280;10774;42.178;26.578;2022-10-16T01:33:46;100727.97;;;10.88;97.08
21234;BME280;10774;42.178;26.578;2022-10-16T01:36:19;100744.97;;;10.71;97.30
21234;BME280;10774;42.178;26.578;2022-10-16T01:38:49;100735.63;;;10.79;97.89
21234;BME280;10774;42.178;26.578;2022-10-16T01:41:23;100738.63;;;10.72;97.76
21234;BME280;10774;42.178;26.578;2022-10-16T01:44:02;100741.47;;;10.69;97.10
21234;BME280;10774;42.178;26.578;2022-10-16T01:46:31;100734.69;;;10.80;97.18
21234;BME280;10774;42.178;26.578;2022-10-16T01:48:57;100737.53;;;10.77;96.61
21234;BME280;10774;42.178;26.578;2022-10-16T01:51:24;100737.94;;;10.52;97.92
21234;BME280;10774;42.178;26.578;2022-10-16T01:53:54;100744.16;;;10.52;97.28
21234;BME280;10774;42.178;26.578;2022-10-16T01:56:21;100751.13;;;10.01;100.00
21234;BME280;10774;42.178;26.578;2022-10-16T01:58:55;100751.66;;;10.09;100.00
21234;BME280;10774;42.178;26.578;2022-10-16T02:01:24;100757.34;;;10.20;100.00
21234;BME280;10774;42.178;26.578;2022-10-16T02:03:53;100768.53;;;10.11;99.77
21234;BME280;10774;42.178;26.578;2022-10-16T02:06:20;100770.19;;;10.33;99.96
21234;BME280;10774;42.178;26.578;2022-10-16T02:08:46;100765.06;;;10.09;99.82
21234;BME280;10774;42.178;26.578;2022-10-16T02:11:12;100776.88;;;10.24;99.78
21234;BME280;10774;42.178;26.578;2022-10-16T02:13:42;100775.72;;;10.11;100.00
21234;BME280;10774;42.178;26.578;2022-10-16T02:16:11;100770.28;;;10.12;99.26
21234;BME280;10774;42.178;26.578;2022-10-16T02:18:37;100776.72;;;10.27;99.72
21234;BME280;10774;42.178;26.578;2022-10-16T02:21:21;100783.72;;;9.93;100.00
21234;BME280;10774;42.178;26.578;2022-10-16T02:23:51;100786.91;;;9.83;100.00
21234;BME280;10774;42.178;26.578;2022-10-16T02:26:30;100786.22;;;9.40;100.00
21234;BME280;10774;42.178;26.578;2022-10-16T02:29:01;100790.09;;;9.33;100.00
21234;BME280;10774;42.178;26.578;2022-10-16T02:31:33;100783.81;;;9.34;100.00
21234;BME280;10774;42.178;26.578;2022-10-16T02:34:02;100773.28;;;9.50;100.00
21234;BME280;10774;42.178;26.578;2022-10-16T02:36:30;100778.63;;;9.68;100.00
21234;BME280;10774;42.178;26.578;2022-10-16T02:38:57;100778.63;;;9.68;100.00
21234;BME280;10774;42.178;26.578;2022-10-16T02:41:25;100787.38;;;9.53;100.00
21234;BME280;10774;42.178;26.578;2022-10-16T02:43:51;100796.31;;;9.73;100.00
21234;BME280;10774;42.178;26.578;2022-10-16T02:46:17;100799.53;;;9.41;100.00
21234;BME280;10774;42.178;26.578;2022-10-16T02:48:43;100795.22;;;9.58;100.00
21234;BME280;10774;42.178;26.578;2022-10-16T02:51:08;100796.69;;;9.65;100.00
21234;BME280;10774;42.178;26.578;2022-10-16T02:53:34;100809.09;;;9.86;100.00
21234;BME280;10774;42.178;26.578;2022-10-16T02:55:59;100807.34;;;9.66;100.00
21234;BME280;10774;42.178;26.578;2022-10-16T02:58:25;100789.22;;;9.72;100.00
21234;BME280;10774;42.178;26.578;2022-10-16T03:00:50;100808.34;;;9.83;100.00
21234;BME280;10774;42.178;26.578;2022-10-16T03:03:15;100809.47;;;9.58;100.00
21234;BME280;10774;42.178;26.578;2022-10-16T03:05:43;100806.25;;;9.31;100.00
21234;BME280;10774;42.178;26.578;2022-10-16T03:08:08;100807.25;;;9.49;100.00
21234;BME280;10774;42.178;26.578;2022-10-16T03:10:34;100806.16;;;9.53;100.00
21234;BME280;10774;42.178;26.578;2022-10-16T03:12:59;100811.38;;;9.56;100.00
21234;BME280;10774;42.178;26.578;2022-10-16T03:15:25;100827.88;;;9.47;100.00
21234;BME280;10774;42.178;26.578;2022-10-16T03:17:51;100825.84;;;9.52;100.00
21234;BME280;10774;42.178;26.578;2022-10-16T03:20:16;100824.13;;;9.51;100.00
21234;BME280;10774;42.178;26.578;2022-10-16T03:22:41;100823.06;;;9.35;100.00
21234;BME280;10774;42.178;26.578;2022-10-16T03:25:07;100821.84;;;9.42;100.00
21234;BME280;10774;42.178;26.578;2022-10-16T03:27:32;100827.88;;;9.47;100.00
21234;BME280;10774;42.178;26.578;2022-10-16T03:29:58;100823.06;;;9.35;100.00
21234;BME280;10774;42.178;26.578;2022-10-16T03:32:23;100828.56;;;9.32;100.00
21234;BME280;10774;42.178;26.578;2022-10-16T03:34:50;100818.00;;;9.29;100.00
21234;BME280;10774;42.178;26.578;2022-10-16T03:37:15;100826.34;;;9.41;100.00
21234;BME280;10774;42.178;26.578;2022-10-16T03:39:41;100820.00;;;9.24;100.00
21234;BME280;10774;42.178;26.578;2022-10-16T03:42:06;100820.50;;;9.52;100.00
21234;BME280;10774;42.178;26.578;2022-10-16T03:44:32;100822.09;;;9.56;100.00
21234;BME280;10774;42.178;26.578;2022-10-16T03:46:57;100832.81;;;9.56;100.00
21234;BME280;10774;42.178;26.578;2022-10-16T03:49:22;100839.84;;;9.38;100.00
21234;BME280;10774;42.178;26.578;2022-10-16T03:51:48;100842.22;;;9.05;100.00
21234;BME280;10774;42.178;26.578;2022-10-16T03:54:13;100833.03;;;9.31;100.00
21234;BME280;10774;42.178;26.578;2022-10-16T03:56:39;100829.75;;;9.45;100.00
21234;BME280;10774;42.178;26.578;2022-10-16T03:59:04;100830.94;;;9.58;100.00
21234;BME280;10774;42.178;26.578;2022-10-16T04:01:30;100836.81;;;9.66;100.00
21234;BME280;10774;42.178;26.578;2022-10-16T04:03:55;100838.47;;;9.69;100.00
21234;BME280;10774;42.178;26.578;2022-10-16T04:06:21;100832.31;;;9.28;100.00
21234;BME280;10774;42.178;26.578;2022-10-16T04:08:46;100829.09;;;9.40;100.00
21234;BME280;10774;42.178;26.578;2022-10-16T04:11:12;100829.09;;;9.20;100.00
21234;BME280;10774;42.178;26.578;2022-10-16T04:13:37;100825.22;;;8.86;100.00
21234;BME280;10774;42.178;26.578;2022-10-16T04:16:03;100826.81;;;9.10;100.00
21234;BME280;10774;42.178;26.578;2022-10-16T04:18:28;100840.13;;;9.32;100.00
21234;BME280;10774;42.178;26.578;2022-10-16T04:20:54;100832.66;;;9.40;100.00
21234;BME280;10774;42.178;26.578;2022-10-16T04:23:20;100840.31;;;9.48;100.00
21234;BME280;10774;42.178;26.578;2022-10-16T04:25:45;100834.97;;;9.48;100.00
21234;BME280;10774;42.178;26.578;2022-10-16T04:28:11;100846.25;;;9.36;100.00
21234;BME280;10774;42.178;26.578;2022-10-16T04:30:38;100847.44;;;9.49;100.00
21234;BME280;10774;42.178;26.578;2022-10-16T04:33:04;100852.09;;;9.64;100.00
21234;BME280;10774;42.178;26.578;2022-10-16T04:35:30;100854.94;;;9.80;100.00
21234;BME280;10774;42.178;26.578;2022-10-16T04:37:57;100846.34;;;9.92;100.00
21234;BME280;10774;42.178;26.578;2022-10-16T04:40:23;100840.25;;;9.89;100.00
21234;BME280;10774;42.178;26.578;2022-10-16T04:42:48;100852.66;;;9.52;100.00
21234;BME280;10774;42.178;26.578;2022-10-16T04:45:14;100850.63;;;9.57;100.00
21234;BME280;10774;42.178;26.578;2022-10-16T04:47:39;100863.53;;;9.29;100.00
21234;BME280;10774;42.178;26.578;2022-10-16T04:50:05;100870.94;;;9.22;100.00
21234;BME280;10774;42.178;26.578;2022-10-16T04:52:31;100868.66;;;8.93;100.00
21234;BME280;10774;42.178;26.578;2022-10-16T04:54:57;100869.97;;;9.25;100.00
21234;BME280;10774;42.178;26.578;2022-10-16T04:57:26;100871.31;;;9.35;100.00
21234;BME280;10774;42.178;26.578;2022-10-16T04:59:52;100868.72;;;9.11;100.00
21234;BME280;10774;42.178;26.578;2022-10-16T05:02:17;100883.28;;;9.26;100.00
21234;BME280;10774;42.178;26.578;2022-10-16T05:04:43;100874.59;;;9.81;100.00
21234;BME280;10774;42.178;26.578;2022-10-16T05:07:08;100882.16;;;10.10;100.00
21234;BME280;10774;42.178;26.578;2022-10-16T05:09:34;100888.81;;;10.20;99.85
21234;BME280;10774;42.178;26.578;2022-10-16T05:11:59;100888.50;;;9.89;99.39
21234;BME280;10774;42.178;26.578;2022-10-16T05:14:24;100883.88;;;10.11;97.82
21234;BME280;10774;42.178;26.578;2022-10-16T05:16:50;100887.09;;;9.80;97.50
21234;BME280;10774;42.178;26.578;2022-10-16T05:19:16;100892.47;;;9.80;97.93
21234;BME280;10774;42.178;26.578;2022-10-16T05:21:42;100898.53;;;10.04;97.43
21234;BME280;10774;42.178;26.578;2022-10-16T05:24:07;100902.69;;;9.91;96.80
21234;BME280;10774;42.178;26.578;2022-10-16T05:26:34;100897.88;;;9.99;95.44
21234;BME280;10774;42.178;26.578;2022-10-16T05:28:59;100897.50;;;10.07;95.62
21234;BME280;10774;42.178;26.578;2022-10-16T05:31:26;100890.53;;;9.84;95.57
21234;BME280;10774;42.178;26.578;2022-10-16T05:33:51;100900.47;;;9.82;95.40
21234;BME280;10774;42.178;26.578;2022-10-16T05:36:16;100908.34;;;9.66;96.04
21234;BME280;10774;42.178;26.578;2022-10-16T05:38:43;100899.66;;;9.59;96.44
21234;BME280;10774;42.178;26.578;2022-10-16T05:41:08;100903.09;;;9.63;96.10
21234;BME280;10774;42.178;26.578;2022-10-16T05:43:34;100906.91;;;9.57;96.25
21234;BME280;10774;42.178;26.578;2022-10-16T05:46:04;100919.19;;;9.63;96.18
21234;BME280;10774;42.178;26.578;2022-10-16T05:48:31;100921.75;;;9.85;96.19
21234;BME280;10774;42.178;26.578;2022-10-16T05:51:04;100922.78;;;9.82;94.88
21234;BME280;10774;42.178;26.578;2022-10-16T05:53:33;100921.09;;;9.80;96.06
21234;BME280;10774;42.178;26.578;2022-10-16T05:55:59;100923.13;;;9.75;95.09
21234;BME280;10774;42.178;26.578;2022-10-16T05:58:27;100932.97;;;9.74;94.56
21234;BME280;10774;42.178;26.578;2022-10-16T06:00:55;100924.06;;;9.74;95.72
21234;BME280;10774;42.178;26.578;2022-10-16T06:03:21;100927.88;;;9.88;94.52
21234;BME280;10774;42.178;26.578;2022-10-16T06:05:46;100921.38;;;9.74;94.54
21234;BME280;10774;42.178;26.578;2022-10-16T06:08:11;100935.16;;;9.85;94.78
21234;BME280;10774;42.178;26.578;2022-10-16T06:10:37;100942.59;;;9.99;94.24
21234;BME280;10774;42.178;26.578;2022-10-16T06:13:02;100932.75;;;9.99;93.76
21234;BME280;10774;42.178;26.578;2022-10-16T06:15:28;100938.84;;;10.03;94.10
21234;BME280;10774;42.178;26.578;2022-10-16T06:17:53;100931.66;;;10.03;94.57
21234;BME280;10774;42.178;26.578;2022-10-16T06:20:18;100932.97;;;10.34;92.94
21234;BME280;10774;42.178;26.578;2022-10-16T06:22:44;100937.13;;;10.58;91.55
21234;BME280;10774;42.178;26.578;2022-10-16T06:25:09;100943.38;;;10.78;89.98
21234;BME280;10774;42.178;26.578;2022-10-16T06:27:35;100948.13;;;10.90;89.07
21234;BME280;10774;42.178;26.578;2022-10-16T06:30:00;100947.19;;;10.91;89.30
21234;BME280;10774;42.178;26.578;2022-10-16T06:32:27;100952.91;;;11.02;88.65
21234;BME280;10774;42.178;26.578;2022-10-16T06:34:52;100949.97;;;11.07;88.85
21234;BME280;10774;42.178;26.578;2022-10-16T06:37:18;100960.19;;;11.17;87.04
21234;BME280;10774;42.178;26.578;2022-10-16T06:39:43;100953.13;;;11.34;86.87
21234;BME280;10774;42.178;26.578;2022-10-16T06:42:08;100960.13;;;11.53;85.59
21234;BME280;10774;42.178;26.578;2022-10-16T06:44:34;100958.00;;;11.77;85.31
21234;BME280;10774;42.178;26.578;2022-10-16T06:46:59;100957.78;;;12.15;82.11
21234;BME280;10774;42.178;26.578;2022-10-16T06:49:25;100974.09;;;12.45;80.77
21234;BME280;10774;42.178;26.578;2022-10-16T06:51:50;100980.06;;;12.35;80.20
21234;BME280;10774;42.178;26.578;2022-10-16T06:54:15;100982.63;;;12.69;79.22
21234;BME280;10774;42.178;26.578;2022-10-16T06:56:41;100977.84;;;12.74;79.53
21234;BME280;10774;42.178;26.578;2022-10-16T06:59:06;100971.22;;;12.96;78.17
21234;BME280;10774;42.178;26.578;2022-10-16T07:01:32;100980.13;;;12.82;76.15
21234;BME280;10774;42.178;26.578;2022-10-16T07:03:58;100971.84;;;12.69;77.45
21234;BME280;10774;42.178;26.578;2022-10-16T07:06:25;100978.03;;;12.71;74.82
21234;BME280;10774;42.178;26.578;2022-10-16T07:08:52;100973.31;;;12.91;75.68
21234;BME280;10774;42.178;26.578;2022-10-16T07:11:20;100980.28;;;12.95;75.18
21234;BME280;10774;42.178;26.578;2022-10-16T07:13:46;100982.09;;;13.10;73.64
21234;BME280;10774;42.178;26.578;2022-10-16T07:16:20;100990.34;;;13.23;71.45
21234;BME280;10774;42.178;26.578;2022-10-16T07:18:47;100977.69;;;13.39;69.14
21234;BME280;10774;42.178;26.578;2022-10-16T07:21:21;100977.03;;;13.66;66.10
21234;BME280;10774;42.178;26.578;2022-10-16T07:23:51;100984.44;;;13.92;66.84
21234;BME280;10774;42.178;26.578;2022-10-16T07:26:17;100980.25;;;13.86;61.57
21234;BME280;10774;42.178;26.578;2022-10-16T07:28:44;100978.81;;;13.95;60.17
21234;BME280;10774;42.178;26.578;2022-10-16T07:31:12;100983.00;;;14.29;60.08
21234;BME280;10774;42.178;26.578;2022-10-16T07:33:40;100978.19;;;14.34;56.44
21234;BME280;10774;42.178;26.578;2022-10-16T07:36:07;100966.59;;;14.47;56.73
21234;BME280;10774;42.178;26.578;2022-10-16T07:38:33;100981.06;;;14.46;55.45
21234;BME280;10774;42.178;26.578;2022-10-16T07:41:00;100983.41;;;14.52;54.80
21234;BME280;10774;42.178;26.578;2022-10-16T07:43:26;100985.22;;;14.37;55.05
21234;BME280;10774;42.178;26.578;2022-10-16T07:45:52;100969.56;;;14.28;55.43
21234;BME280;10774;42.178;26.578;2022-10-16T07:48:18;100995.50;;;14.45;55.18
21234;BME280;10774;42.178;26.578;2022-10-16T07:50:44;100990.09;;;14.45;56.81
21234;BME280;10774;42.178;26.578;2022-10-16T07:53:10;100989.78;;;14.51;55.82
21234;BME280;10774;42.178;26.578;2022-10-16T07:55:36;100977.00;;;14.38;56.76
21234;BME280;10774;42.178;26.578;2022-10-16T07:58:01;100982.44;;;14.67;55.66
21234;BME280;10774;42.178;26.578;2022-10-16T08:00:27;100968.00;;;15.08;58.56
21234;BME280;10774;42.178;26.578;2022-10-16T08:02:52;100973.41;;;14.81;56.00
21234;BME280;10774;42.178;26.578;2022-10-16T08:05:18;100977.41;;;14.61;57.19
21234;BME280;10774;42.178;26.578;2022-10-16T08:07:48;100957.88;;;14.84;57.23
21234;BME280;10774;42.178;26.578;2022-10-16T08:10:18;100978.28;;;15.03;57.09
21234;BME280;10774;42.178;26.578;2022-10-16T08:12:44;100965.06;;;14.98;57.59
21234;BME280;10774;42.178;26.578;2022-10-16T08:15:10;100972.06;;;14.74;58.71
21234;BME280;10774;42.178;26.578;2022-10-16T08:17:35;100981.75;;;15.05;60.00
21234;BME280;10774;42.178;26.578;2022-10-16T08:20:02;100970.00;;;15.46;59.46
21234;BME280;10774;42.178;26.578;2022-10-16T08:22:27;100971.28;;;15.67;58.39
21234;BME280;10774;42.178;26.578;2022-10-16T08:24:53;100977.03;;;16.01;60.05
21234;BME280;10774;42.178;26.578;2022-10-16T08:27:19;100982.25;;;16.16;57.90
21234;BME280;10774;42.178;26.578;2022-10-16T08:29:44;100979.44;;;15.92;59.44
21234;BME280;10774;42.178;26.578;2022-10-16T08:32:10;100982.88;;;15.94;57.43
21234;BME280;10774;42.178;26.578;2022-10-16T08:34:35;100974.41;;;15.86;57.30
21234;BME280;10774;42.178;26.578;2022-10-16T08:37:01;100976.25;;;15.73;57.35
21234;BME280;10774;42.178;26.578;2022-10-16T08:39:28;100976.78;;;15.65;58.65
21234;BME280;10774;42.178;26.578;2022-10-16T08:48:43;100988.50;;;15.91;56.70
21234;BME280;10774;42.178;26.578;2022-10-16T08:50:52;100986.78;;;15.90;56.45
21234;BME280;10774;42.178;26.578;2022-10-16T08:53:22;100997.41;;;15.93;57.43
21234;BME280;10774;42.178;26.578;2022-10-16T08:55:50;100995.53;;;16.58;55.03
21234;BME280;10774;42.178;26.578;2022-10-16T08:58:18;100992.75;;;17.09;56.16
21234;BME280;10774;42.178;26.578;2022-10-16T09:00:53;101005.53;;;17.55;54.15
21234;BME280;10774;42.178;26.578;2022-10-16T09:03:41;101006.44;;;17.90;52.97
21234;BME280;10774;42.178;26.578;2022-10-16T09:09:10;100988.97;;;16.98;53.80
21234;BME280;10774;42.178;26.578;2022-10-16T09:20:12;101001.41;;;17.14;53.92
21234;BME280;10774;42.178;26.578;2022-10-16T09:22:39;100993.88;;;17.41;52.94
21234;BME280;10774;42.178;26.578;2022-10-16T09:25:16;100997.56;;;17.64;53.24
21234;BME280;10774;42.178;26.578;2022-10-16T09:27:46;100992.66;;;18.05;51.90
21234;BME280;10774;42.178;26.578;2022-10-16T09:30:14;100989.13;;;17.80;51.17
21234;BME280;10774;42.178;26.578;2022-10-16T09:32:41;100990.59;;;17.73;50.68
21234;BME280;10774;42.178;26.578;2022-10-16T09:35:13;100989.00;;;17.82;51.17
21234;BME280;10774;42.178;26.578;2022-10-16T09:37:40;100984.56;;;17.92;51.97
21234;BME280;10774;42.178;26.578;2022-10-16T09:40:13;100984.00;;;17.99;51.26
21234;BME280;10774;42.178;26.578;2022-10-16T09:42:38;100980.91;;;17.69;50.74
21234;BME280;10774;42.178;26.578;2022-10-16T09:45:05;100977.59;;;18.12;50.04
21234;BME280;10774;42.178;26.578;2022-10-16T09:47:31;100980.69;;;18.29;50.14
21234;BME280;10774;42.178;26.578;2022-10-16T09:49:59;100980.44;;;18.44;49.50
21234;BME280;10774;42.178;26.578;2022-10-16T09:52:28;100968.59;;;17.76;49.70
21234;BME280;10774;42.178;26.578;2022-10-16T09:54:58;100971.44;;;17.50;51.27
21234;BME280;10774;42.178;26.578;2022-10-16T09:57:25;100970.25;;;17.79;50.35
21234;BME280;10774;42.178;26.578;2022-10-16T09:59:55;100974.22;;;17.62;50.45
21234;BME280;10774;42.178;26.578;2022-10-16T10:02:30;100970.97;;;17.45;51.49
21234;BME280;10774;42.178;26.578;2022-10-16T10:04:57;100970.00;;;17.58;50.85
21234;BME280;10774;42.178;26.578;2022-10-16T10:07:33;100981.25;;;17.88;49.43
21234;BME280;10774;42.178;26.578;2022-10-16T10:10:05;100972.75;;;18.04;49.37
21234;BME280;10774;42.178;26.578;2022-10-16T10:12:32;100966.66;;;17.78;49.68
21234;BME280;10774;42.178;26.578;2022-10-16T10:15:20;100961.03;;;18.15;48.80
21234;BME280;10774;42.178;26.578;2022-10-16T10:17:57;100952.38;;;18.77;48.50
21234;BME280;10774;42.178;26.578;2022-10-16T10:20:29;100948.16;;;18.95;47.48
21234;BME280;10774;42.178;26.578;2022-10-16T10:22:57;100941.56;;;19.41;47.15
21234;BME280;10774;42.178;26.578;2022-10-16T10:46:45;100940.81;;;18.30;47.37
21234;BME280;10774;42.178;26.578;2022-10-16T10:52:02;100922.63;;;19.07;46.40
21234;BME280;10774;42.178;26.578;2022-10-16T11:00:04;100921.75;;;20.23;43.76
21234;BME280;10774;42.178;26.578;2022-10-16T11:02:41;100920.28;;;20.19;44.19
21234;BME280;10774;42.178;26.578;2022-10-16T11:10:58;100914.97;;;19.33;44.57
21234;BME280;10774;42.178;26.578;2022-10-16T11:16:13;100913.22;;;20.06;44.51
21234;BME280;10774;42.178;26.578;2022-10-16T11:18:58;100907.75;;;20.68;42.24
21234;BME280;10774;42.178;26.578;2022-10-16T11:21:30;100908.22;;;20.92;41.68
21234;BME280;10774;42.178;26.578;2022-10-16T11:26:28;100915.13;;;20.96;41.59
21234;BME280;10774;42.178;26.578;2022-10-16T11:28:56;100917.91;;;20.25;40.72
21234;BME280;10774;42.178;26.578;2022-10-16T11:31:29;100917.41;;;19.16;43.19
21234;BME280;10774;42.178;26.578;2022-10-16T11:36:51;100922.59;;;19.72;42.80
21234;BME280;10774;42.178;26.578;2022-10-16T11:39:25;100906.97;;;19.53;43.14
21234;BME280;10774;42.178;26.578;2022-10-16T11:42:10;100910.81;;;19.62;42.43
21234;BME280;10774;42.178;26.578;2022-10-16T11:45:12;100895.47;;;19.91;41.02
21234;BME280;10774;42.178;26.578;2022-10-16T11:47:54;100895.63;;;20.20;41.24
21234;BME280;10774;42.178;26.578;2022-10-16T11:50:43;100901.84;;;20.32;41.66
21234;BME280;10774;42.178;26.578;2022-10-16T11:53:23;100911.75;;;20.33;40.56
21234;BME280;10774;42.178;26.578;2022-10-16T11:55:53;100911.72;;;20.23;41.10
21234;BME280;10774;42.178;26.578;2022-10-16T12:04:02;100907.91;;;19.10;42.72
21234;BME280;10774;42.178;26.578;2022-10-16T12:09:49;100917.66;;;20.38;40.75
21234;BME280;10774;42.178;26.578;2022-10-16T12:12:43;100919.94;;;19.61;41.50
21234;BME280;10774;42.178;26.578;2022-10-16T12:15:27;100916.41;;;19.17;42.15
21234;BME280;10774;42.178;26.578;2022-10-16T12:17:55;100927.22;;;19.07;42.78
21234;BME280;10774;42.178;26.578;2022-10-16T12:20:29;100920.88;;;18.74;43.09
21234;BME280;10774;42.178;26.578;2022-10-16T12:23:01;100928.66;;;18.79;43.02
21234;BME280;10774;42.178;26.578;2022-10-16T12:25:34;100926.31;;;19.71;41.98
21234;BME280;10774;42.178;26.578;2022-10-16T12:28:06;100914.06;;;20.37;40.33
21234;BME280;10774;42.178;26.578;2022-10-16T12:30:34;100909.03;;;20.33;39.82
21234;BME280;10774;42.178;26.578;2022-10-16T12:33:23;100916.69;;;20.89;40.03
21234;BME280;10774;42.178;26.578;2022-10-16T12:35:47;100924.06;;;20.27;39.84
21234;BME280;10774;42.178;26.578;2022-10-16T12:41:08;100928.78;;;20.46;39.82
21234;BME280;10774;42.178;26.578;2022-10-16T12:43:38;100924.56;;;20.11;39.95
21234;BME280;10774;42.178;26.578;2022-10-16T12:48:38;100917.13;;;20.84;39.60
21234;BME280;10774;42.178;26.578;2022-10-16T12:51:32;100920.75;;;21.04;39.87
21234;BME280;10774;42.178;26.578;2022-10-16T12:54:03;100932.38;;;21.06;40.70
21234;BME280;10774;42.178;26.578;2022-10-16T13:07:44;100926.03;;;20.96;38.11
21234;BME280;10774;42.178;26.578;2022-10-16T13:19:15;100915.13;;;20.16;37.89
21234;BME280;10774;42.178;26.578;2022-10-16T13:22:18;100925.16;;;20.86;37.81
21234;BME280;10774;42.178;26.578;2022-10-16T13:30:20;100931.47;;;20.86;36.51
21234;BME280;10774;42.178;26.578;2022-10-16T13:32:56;100922.00;;;20.91;35.59
21234;BME280;10774;42.178;26.578;2022-10-16T13:35:27;100945.75;;;20.59;35.81
21234;BME280;10774;42.178;26.578;2022-10-16T13:40:30;100945.59;;;21.11;34.52
21234;BME280;10774;42.178;26.578;2022-10-16T13:42:55;100937.03;;;20.04;35.92
21234;BME280;10774;42.178;26.578;2022-10-16T13:45:24;100941.03;;;20.31;36.23
21234;BME280;10774;42.178;26.578;2022-10-16T13:48:01;100934.63;;;20.92;36.05
21234;BME280;10774;42.178;26.578;2022-10-16T13:50:27;100938.03;;;21.53;34.50
21234;BME280;10774;42.178;26.578;2022-10-16T13:53:03;100932.97;;;22.34;34.35
21234;BME280;10774;42.178;26.578;2022-10-16T13:55:29;100927.88;;;22.77;34.00
21234;BME280;10774;42.178;26.578;2022-10-16T13:58:05;100939.81;;;22.01;33.96
21234;BME280;10774;42.178;26.578;2022-10-16T14:00:30;100941.88;;;21.80;32.94
21234;BME280;10774;42.178;26.578;2022-10-16T14:03:12;100940.28;;;21.29;32.68
21234;BME280;10774;42.178;26.578;2022-10-16T14:05:48;100927.81;;;21.65;33.25
21234;BME280;10774;42.178;26.578;2022-10-16T14:08:14;100931.28;;;21.57;32.11
21234;BME280;10774;42.178;26.578;2022-10-16T14:10:40;100934.09;;;20.88;32.51
21234;BME280;10774;42.178;26.578;2022-10-16T14:13:06;100922.91;;;21.10;32.25
21234;BME280;10774;42.178;26.578;2022-10-16T14:15:34;100936.56;;;21.10;33.12
21234;BME280;10774;42.178;26.578;2022-10-16T14:18:00;100935.78;;;20.79;32.56
21234;BME280;10774;42.178;26.578;2022-10-16T14:20:29;100930.56;;;20.67;33.39
21234;BME280;10774;42.178;26.578;2022-10-16T14:23:16;100929.69;;;20.66;33.68
21234;BME280;10774;42.178;26.578;2022-10-16T14:25:44;100941.03;;;21.40;33.35
21234;BME280;10774;42.178;26.578;2022-10-16T14:30:35;100938.72;;;21.26;33.17
21234;BME280;10774;42.178;26.578;2022-10-16T14:33:06;100947.91;;;21.06;32.73
21234;BME280;10774;42.178;26.578;2022-10-16T14:35:45;100955.50;;;20.52;33.10
21234;BME280;10774;42.178;26.578;2022-10-16T14:38:19;100946.13;;;20.15;34.46
21234;BME280;10774;42.178;26.578;2022-10-16T14:40:49;100949.97;;;19.91;34.22
21234;BME280;10774;42.178;26.578;2022-10-16T14:43:21;100951.59;;;19.73;33.49
21234;BME280;10774;42.178;26.578;2022-10-16T14:45:52;100937.03;;;19.63;33.73